Time;durP1;ratioP1;P1;durP2;ratioP2;P2;SDS_P1;SDS_P2;PMS_P1;PMS_P2;Temp;Humidity;BMP_temperature;BMP_pressure;BME280_temperature;BME280_humidity;BME280_pressure;Samples;Min_cycle;Max_cycle;Signal;HPM_P1;HPM_P2
2021/11/20 00:02:22;;;;;;;24.15;14.18;;;;;;;;;;5045865;28;20082;-73
2021/11/20 00:04:48;;;;;;;19.25;11.30;;;;;;;;;;5027755;28;20025;-76
2021/11/20 00:07:14;;;;;;;18.17;10.43;;;;;;;;;;5053562;28;20037;-73
2021/11/20 00:09:40;;;;;;;16.20;10.70;;;;;;;;;;5028159;28;20528;-73
2021/11/20 00:12:08;;;;;;;14.27;9.18;;;;;;;;;;5043648;28;20021;-73
2021/11/20 00:14:34;;;;;;;19.13;11.38;;;;;;;;;;5055076;28;20501;-74
2021/11/20 00:17:01;;;;;;;24.48;10.95;;;;;;;;;;5059115;28;20056;-74
2021/11/20 00:19:28;;;;;;;15.70;9.57;;;;;;;;;;5040760;28;20397;-74
2021/11/20 00:21:59;;;;;;;12.90;8.23;;;;;;;;;;5035082;28;20026;-73
2021/11/20 00:24:37;;;;;;;16.13;9.13;;;;;;;;;;5041741;28;20075;-73
2021/11/20 00:27:05;;;;;;;17.85;9.35;;;;;;;;;;5036834;28;20509;-74
2021/11/20 00:29:39;;;;;;;20.10;10.85;;;;;;;;;;5047314;28;20053;-74
2021/11/20 00:32:10;;;;;;;13.63;8.65;;;;;;;;;;5019431;28;20059;-74
2021/11/20 00:34:38;;;;;;;16.52;10.18;;;;;;;;;;5040738;28;20029;-74
2021/11/20 00:37:07;;;;;;;17.05;8.82;;;;;;;;;;5027162;28;20111;-74
2021/11/20 00:39:33;;;;;;;13.32;9.55;;;;;;;;;;5034097;28;20025;-75
2021/11/20 00:42:00;;;;;;;14.70;8.98;;;;;;;;;;5046302;28;20076;-75
2021/11/20 00:44:27;;;;;;;15.65;9.38;;;;;;;;;;5041379;28;20032;-74
2021/11/20 00:46:53;;;;;;;19.23;9.90;;;;;;;;;;5040377;28;20105;-71
2021/11/20 00:49:20;;;;;;;16.88;10.15;;;;;;;;;;5030991;28;20029;-74
2021/11/20 00:51:46;;;;;;;15.02;9.90;;;;;;;;;;5018411;28;20020;-75
2021/11/20 00:54:12;;;;;;;15.70;9.88;;;;;;;;;;5045151;28;20021;-74
2021/11/20 00:56:38;;;;;;;17.45;10.10;;;;;;;;;;5043109;28;20478;-75
2021/11/20 00:59:05;;;;;;;15.50;9.00;;;;;;;;;;5038036;28;20037;-75
2021/11/20 01:01:39;;;;;;;14.45;8.50;;;;;;;;;;5048684;28;20476;-75
2021/11/20 01:04:06;;;;;;;15.88;8.68;;;;;;;;;;5038130;28;20023;-74
2021/11/20 01:06:33;;;;;;;14.18;10.15;;;;;;;;;;5024473;28;20025;-73
2021/11/20 01:08:59;;;;;;;13.98;9.48;;;;;;;;;;5036276;28;20076;-71
2021/11/20 01:11:39;;;;;;;14.88;8.73;;;;;;;;;;5031262;28;20060;-73
2021/11/20 01:14:06;;;;;;;12.73;8.30;;;;;;;;;;5049207;28;20112;-74
2021/11/20 01:16:32;;;;;;;12.73;8.43;;;;;;;;;;5042287;28;20059;-74
2021/11/20 01:18:59;;;;;;;13.32;8.65;;;;;;;;;;5045017;28;20064;-74
2021/11/20 01:21:25;;;;;;;13.07;8.90;;;;;;;;;;5049364;28;20029;-74
2021/11/20 01:23:51;;;;;;;13.20;9.52;;;;;;;;;;5052398;28;20047;-72
2021/11/20 01:26:19;;;;;;;14.48;8.57;;;;;;;;;;5044308;28;20028;-74
2021/11/20 01:28:48;;;;;;;15.38;9.40;;;;;;;;;;5042859;28;20029;-74
2021/11/20 01:31:15;;;;;;;15.23;9.32;;;;;;;;;;5018410;28;20080;-71
2021/11/20 01:33:41;;;;;;;17.30;9.93;;;;;;;;;;5030364;28;20078;-71
2021/11/20 01:36:08;;;;;;;13.57;8.73;;;;;;;;;;5038044;28;20021;-73
2021/11/20 01:38:34;;;;;;;16.98;10.15;;;;;;;;;;5041382;28;20489;-73
2021/11/20 01:41:01;;;;;;;20.70;11.68;;;;;;;;;;5027428;28;20024;-74
2021/11/20 01:43:27;;;;;;;12.93;9.02;;;;;;;;;;5034849;28;20021;-74
2021/11/20 01:46:02;;;;;;;14.23;9.82;;;;;;;;;;5047543;28;20391;-74
2021/11/20 01:48:28;;;;;;;17.13;10.30;;;;;;;;;;5041005;28;20024;-74
2021/11/20 01:50:57;;;;;;;15.55;10.30;;;;;;;;;;5038870;28;20105;-74
2021/11/20 01:53:30;;;;;;;18.42;11.57;;;;;;;;;;5047916;28;20067;-75
2021/11/20 01:56:08;;;;;;;15.63;11.18;;;;;;;;;;5036285;28;20100;-74
2021/11/20 01:58:43;;;;;;;16.63;9.98;;;;;;;;;;5041113;28;20501;-73
2021/11/20 02:01:19;;;;;;;18.98;10.80;;;;;;;;;;5028200;28;20471;-73
2021/11/20 02:03:48;;;;;;;20.23;11.13;;;;;;;;;;5016911;28;20502;-75
2021/11/20 02:06:30;;;;;;;14.18;9.95;;;;;;;;;;5026209;28;20479;-73
2021/11/20 02:09:02;;;;;;;15.77;10.57;;;;;;;;;;5035490;28;20114;-74
2021/11/20 02:11:32;;;;;;;21.67;11.52;;;;;;;;;;5048474;28;20390;-74
2021/11/20 02:13:58;;;;;;;18.70;11.82;;;;;;;;;;5048503;28;20019;-73
2021/11/20 02:16:26;;;;;;;22.25;12.23;;;;;;;;;;5042681;28;20018;-74
2021/11/20 02:18:55;;;;;;;16.92;11.13;;;;;;;;;;5043689;28;20032;-74
2021/11/20 02:21:31;;;;;;;14.85;10.68;;;;;;;;;;5048584;28;20456;-75
2021/11/20 02:23:57;;;;;;;20.17;11.38;;;;;;;;;;5030995;28;20095;-71
2021/11/20 02:26:23;;;;;;;17.60;11.05;;;;;;;;;;5039842;28;20494;-74
2021/11/20 02:28:50;;;;;;;20.63;13.15;;;;;;;;;;5039295;28;20132;-74
2021/11/20 02:31:17;;;;;;;17.23;11.77;;;;;;;;;;5029055;28;20025;-73
2021/11/20 02:33:44;;;;;;;14.25;10.63;;;;;;;;;;5034270;28;20029;-73
2021/11/20 02:36:11;;;;;;;17.75;11.70;;;;;;;;;;5044395;28;20029;-73
2021/11/20 02:38:37;;;;;;;17.75;11.68;;;;;;;;;;5041760;28;20079;-74
2021/11/20 02:41:04;;;;;;;19.27;12.50;;;;;;;;;;5037381;28;20471;-74
2021/11/20 02:43:33;;;;;;;18.83;12.10;;;;;;;;;;5047444;28;20021;-73
2021/11/20 02:45:59;;;;;;;23.33;13.23;;;;;;;;;;5036289;28;20027;-74
2021/11/20 02:48:25;;;;;;;17.42;12.75;;;;;;;;;;5024265;28;20018;-74
2021/11/20 02:51:03;;;;;;;20.83;12.00;;;;;;;;;;5044312;28;20385;-73
2021/11/20 02:53:32;;;;;;;19.35;12.68;;;;;;;;;;5037948;28;20028;-75
2021/11/20 02:55:58;;;;;;;17.23;12.13;;;;;;;;;;5049648;28;20148;-72
2021/11/20 02:58:25;;;;;;;17.20;11.75;;;;;;;;;;5043157;28;20021;-72
2021/11/20 03:00:56;;;;;;;18.35;11.68;;;;;;;;;;5042194;28;20026;-73
2021/11/20 03:03:22;;;;;;;17.65;11.48;;;;;;;;;;5032732;28;20021;-73
2021/11/20 03:05:48;;;;;;;22.17;12.02;;;;;;;;;;5020336;28;20045;-74
2021/11/20 03:08:14;;;;;;;15.90;12.02;;;;;;;;;;5049769;28;20017;-73
2021/11/20 03:10:41;;;;;;;17.60;11.75;;;;;;;;;;5025479;28;20029;-75
2021/11/20 03:13:07;;;;;;;19.55;12.27;;;;;;;;;;5053412;28;20390;-73
2021/11/20 03:15:33;;;;;;;16.27;11.85;;;;;;;;;;5037544;28;20155;-74
2021/11/20 03:17:59;;;;;;;17.80;11.90;;;;;;;;;;5048912;28;20543;-73
2021/11/20 03:20:26;;;;;;;21.27;13.30;;;;;;;;;;5034826;28;20025;-74
2021/11/20 03:22:55;;;;;;;21.92;12.85;;;;;;;;;;5018270;28;20029;-76
2021/11/20 03:25:22;;;;;;;19.77;12.05;;;;;;;;;;5035301;28;20037;-73
2021/11/20 03:27:49;;;;;;;17.98;12.15;;;;;;;;;;5036341;28;20104;-73
2021/11/20 03:30:15;;;;;;;22.42;13.23;;;;;;;;;;5090599;22;20097;-68
2021/11/20 03:32:41;;;;;;;15.98;11.57;;;;;;;;;;5062099;28;20036;-68
2021/11/20 03:35:08;;;;;;;20.38;13.70;;;;;;;;;;5068160;28;20397;-68
2021/11/20 03:37:34;;;;;;;18.23;12.50;;;;;;;;;;5057173;28;20486;-68
2021/11/20 03:40:00;;;;;;;18.65;12.57;;;;;;;;;;5068656;28;20441;-68
2021/11/20 03:42:26;;;;;;;22.25;13.02;;;;;;;;;;5062839;28;20052;-68
2021/11/20 03:44:52;;;;;;;22.90;13.10;;;;;;;;;;5043367;28;20383;-68
2021/11/20 03:47:18;;;;;;;20.02;12.80;;;;;;;;;;5069545;28;20025;-68
2021/11/20 03:49:45;;;;;;;22.85;12.98;;;;;;;;;;5056916;28;20032;-68
2021/11/20 03:52:12;;;;;;;21.02;14.15;;;;;;;;;;5066751;28;20021;-68
2021/11/20 03:54:39;;;;;;;18.70;12.90;;;;;;;;;;5063528;28;20023;-68
2021/11/20 03:57:05;;;;;;;23.30;13.50;;;;;;;;;;5059167;28;20029;-68
2021/11/20 03:59:32;;;;;;;20.17;12.60;;;;;;;;;;5069474;28;20478;-68
2021/11/20 04:01:59;;;;;;;19.88;12.18;;;;;;;;;;5058032;28;20029;-68
2021/11/20 04:04:26;;;;;;;22.92;13.55;;;;;;;;;;5064181;28;20104;-69
2021/11/20 04:06:52;;;;;;;18.23;11.88;;;;;;;;;;5065709;28;20037;-69
2021/11/20 04:09:18;;;;;;;18.10;12.00;;;;;;;;;;5045287;28;20032;-68
2021/11/20 04:11:46;;;;;;;21.25;13.32;;;;;;;;;;5047825;28;20507;-68
2021/11/20 04:14:12;;;;;;;18.33;12.82;;;;;;;;;;5034732;28;20021;-68
2021/11/20 04:16:39;;;;;;;19.33;13.27;;;;;;;;;;5063505;28;20027;-68
2021/11/20 04:19:05;;;;;;;22.00;13.63;;;;;;;;;;5058655;28;20032;-68
2021/11/20 04:21:33;;;;;;;21.02;13.38;;;;;;;;;;5052917;28;20071;-68
2021/11/20 04:24:00;;;;;;;21.73;12.82;;;;;;;;;;5072069;28;20070;-68
2021/11/20 04:26:26;;;;;;;21.30;13.63;;;;;;;;;;5064106;28;20021;-68
2021/11/20 04:28:53;;;;;;;24.55;13.10;;;;;;;;;;5065121;28;20272;-68
2021/11/20 04:31:20;;;;;;;24.45;14.75;;;;;;;;;;5056719;28;20474;-69
2021/11/20 04:33:47;;;;;;;21.45;14.50;;;;;;;;;;5051076;28;20398;-68
2021/11/20 04:36:13;;;;;;;21.77;14.18;;;;;;;;;;5059724;28;20021;-68
2021/11/20 04:38:39;;;;;;;19.80;13.85;;;;;;;;;;5061694;28;20044;-67
2021/11/20 04:41:06;;;;;;;22.58;14.75;;;;;;;;;;5066693;28;20013;-68
2021/11/20 04:43:32;;;;;;;21.70;14.88;;;;;;;;;;5055404;28;20047;-68
2021/11/20 04:45:58;;;;;;;20.13;14.27;;;;;;;;;;5067381;28;20044;-68
2021/11/20 04:48:24;;;;;;;21.67;14.05;;;;;;;;;;5060766;28;20029;-68
2021/11/20 04:50:52;;;;;;;27.27;15.38;;;;;;;;;;5060251;28;20544;-68
2021/11/20 04:53:18;;;;;;;23.85;13.57;;;;;;;;;;5067941;28;20025;-68
2021/11/20 04:55:45;;;;;;;22.33;14.07;;;;;;;;;;5055378;28;20024;-68
2021/11/20 04:58:11;;;;;;;20.63;14.43;;;;;;;;;;5065122;28;20009;-68
2021/11/20 05:00:39;;;;;;;24.88;14.45;;;;;;;;;;5062448;28;20111;-68
2021/11/20 05:03:07;;;;;;;20.83;15.23;;;;;;;;;;5057459;28;20025;-68
2021/11/20 05:05:34;;;;;;;21.15;14.73;;;;;;;;;;5068531;28;20445;-68
2021/11/20 05:08:00;;;;;;;19.88;13.77;;;;;;;;;;5038332;28;20066;-68
2021/11/20 05:10:26;;;;;;;21.73;14.75;;;;;;;;;;5060498;28;20016;-68
2021/11/20 05:12:52;;;;;;;21.88;14.30;;;;;;;;;;5053085;28;20025;-68
2021/11/20 05:15:18;;;;;;;20.52;14.80;;;;;;;;;;5066082;28;20033;-68
2021/11/20 05:17:44;;;;;;;22.27;14.45;;;;;;;;;;5055099;28;20492;-68
2021/11/20 05:20:10;;;;;;;23.80;15.00;;;;;;;;;;5064963;28;20104;-68
2021/11/20 05:22:37;;;;;;;22.55;15.77;;;;;;;;;;5061873;28;20035;-68
2021/11/20 05:25:04;;;;;;;22.13;15.50;;;;;;;;;;5057563;28;20032;-68
2021/11/20 05:27:30;;;;;;;21.23;14.70;;;;;;;;;;5068188;28;20481;-68
2021/11/20 05:30:05;;;;;;;23.85;15.93;;;;;;;;;;5056259;28;20021;-68
2021/11/20 05:32:31;;;;;;;29.55;15.32;;;;;;;;;;5044360;28;20017;-68
2021/11/20 05:34:57;;;;;;;26.30;16.65;;;;;;;;;;5064598;28;20477;-68
2021/11/20 05:37:25;;;;;;;28.05;16.50;;;;;;;;;;5054849;28;20036;-68
2021/11/20 05:39:51;;;;;;;26.85;15.95;;;;;;;;;;5067429;28;20470;-68
2021/11/20 05:42:17;;;;;;;24.48;16.67;;;;;;;;;;5059181;28;20102;-68
2021/11/20 05:44:43;;;;;;;31.92;16.30;;;;;;;;;;5060138;28;20032;-67
2021/11/20 05:47:09;;;;;;;25.00;17.13;;;;;;;;;;5066266;28;20501;-68
2021/11/20 05:49:37;;;;;;;26.45;16.98;;;;;;;;;;5054678;28;20025;-68
2021/11/20 05:52:04;;;;;;;28.20;17.95;;;;;;;;;;5065604;28;20104;-68
2021/11/20 05:54:30;;;;;;;32.25;19.48;;;;;;;;;;5060609;28;20086;-68
2021/11/20 05:56:56;;;;;;;27.35;18.90;;;;;;;;;;5058504;28;20017;-68
2021/11/20 05:59:23;;;;;;;28.33;18.67;;;;;;;;;;5049653;28;20028;-68
2021/11/20 06:01:50;;;;;;;31.75;18.42;;;;;;;;;;5054967;28;20032;-68
2021/11/20 06:04:16;;;;;;;33.75;18.33;;;;;;;;;;5063559;28;20027;-68
2021/11/20 06:06:42;;;;;;;28.05;19.40;;;;;;;;;;5062200;28;20393;-68
2021/11/20 06:09:08;;;;;;;33.38;20.35;;;;;;;;;;5028249;28;20026;-68
2021/11/20 06:11:34;;;;;;;31.92;21.35;;;;;;;;;;5043389;28;20018;-68
2021/11/20 06:14:01;;;;;;;36.33;20.70;;;;;;;;;;5036724;28;20024;-68
2021/11/20 06:16:27;;;;;;;34.88;20.05;;;;;;;;;;5060212;28;20028;-68
2021/11/20 06:18:53;;;;;;;33.97;20.45;;;;;;;;;;5040593;28;20390;-68
2021/11/20 06:21:19;;;;;;;44.20;23.20;;;;;;;;;;5049775;28;20115;-68
2021/11/20 06:23:45;;;;;;;35.88;21.45;;;;;;;;;;5067141;28;20023;-68
2021/11/20 06:26:11;;;;;;;41.78;23.13;;;;;;;;;;5059682;28;20323;-67
2021/11/20 06:28:37;;;;;;;35.95;23.58;;;;;;;;;;5064436;28;20033;-68
2021/11/20 06:31:05;;;;;;;37.53;22.33;;;;;;;;;;5069050;28;20035;-68
2021/11/20 06:33:31;;;;;;;33.83;22.63;;;;;;;;;;5058057;28;20017;-69
2021/11/20 06:35:58;;;;;;;40.38;21.40;;;;;;;;;;5051815;28;20402;-68
2021/11/20 06:38:24;;;;;;;44.78;24.10;;;;;;;;;;5063686;28;20039;-68
2021/11/20 06:40:51;;;;;;;33.72;22.60;;;;;;;;;;5062657;28;20021;-68
2021/11/20 06:43:22;;;;;;;44.55;23.38;;;;;;;;;;5052439;28;20120;-69
2021/11/20 06:45:48;;;;;;;36.67;21.58;;;;;;;;;;5041903;28;20025;-68
2021/11/20 06:48:15;;;;;;;38.05;23.25;;;;;;;;;;5067466;28;20104;-68
2021/11/20 06:50:43;;;;;;;40.70;22.60;;;;;;;;;;5065491;28;20020;-68
2021/11/20 06:53:10;;;;;;;33.65;21.90;;;;;;;;;;5059783;28;20025;-68
2021/11/20 06:55:37;;;;;;;35.45;20.35;;;;;;;;;;5071056;28;20099;-68
2021/11/20 06:58:20;;;;;;;36.58;20.60;;;;;;;;;;5060189;28;20501;-68
2021/11/20 07:00:46;;;;;;;35.83;20.92;;;;;;;;;;5062705;28;20078;-69
2021/11/20 07:03:12;;;;;;;35.40;20.40;;;;;;;;;;5069238;28;20034;-68
2021/11/20 07:05:41;;;;;;;28.70;20.45;;;;;;;;;;5057446;28;20530;-68
2021/11/20 07:08:08;;;;;;;34.47;20.25;;;;;;;;;;5066145;28;20528;-68
2021/11/20 07:10:34;;;;;;;29.75;18.75;;;;;;;;;;5044042;28;20061;-68
2021/11/20 07:13:01;;;;;;;36.00;19.83;;;;;;;;;;5041082;28;20079;-68
2021/11/20 07:15:27;;;;;;;31.63;18.38;;;;;;;;;;5070027;28;20029;-68
2021/11/20 07:17:54;;;;;;;31.23;19.73;;;;;;;;;;5058437;28;20051;-68
2021/11/20 07:20:22;;;;;;;31.13;19.00;;;;;;;;;;5047782;28;20025;-68
2021/11/20 07:22:49;;;;;;;25.40;18.25;;;;;;;;;;5065920;28;20035;-68
2021/11/20 07:25:15;;;;;;;22.60;16.77;;;;;;;;;;5058822;28;20136;-68
2021/11/20 07:27:41;;;;;;;27.45;17.35;;;;;;;;;;5070809;28;20025;-69
2021/11/20 07:30:08;;;;;;;34.40;18.95;;;;;;;;;;5055757;28;20021;-69
2021/11/20 07:32:34;;;;;;;31.30;18.25;;;;;;;;;;5064048;28;20031;-69
2021/11/20 07:35:00;;;;;;;24.48;16.58;;;;;;;;;;5060241;28;20025;-69
2021/11/20 07:37:27;;;;;;;23.65;16.52;;;;;;;;;;5069738;28;20083;-69
2021/11/20 07:39:53;;;;;;;24.02;17.42;;;;;;;;;;5057857;28;20031;-69
2021/11/20 07:42:19;;;;;;;24.55;16.25;;;;;;;;;;5065787;28;20100;-69
2021/11/20 07:44:45;;;;;;;22.75;16.13;;;;;;;;;;5062536;28;20560;-70
2021/11/20 07:47:11;;;;;;;27.48;17.40;;;;;;;;;;5055150;28;20028;-69
2021/11/20 07:49:39;;;;;;;29.17;16.83;;;;;;;;;;5051429;28;20062;-69
2021/11/20 07:52:05;;;;;;;23.50;15.75;;;;;;;;;;5059481;28;20063;-69
2021/11/20 07:54:31;;;;;;;24.30;15.00;;;;;;;;;;5063711;28;20017;-69
2021/11/20 07:56:57;;;;;;;26.67;16.27;;;;;;;;;;5066561;28;20120;-69
2021/11/20 07:59:24;;;;;;;19.27;14.25;;;;;;;;;;5055444;28;20025;-70
2021/11/20 08:01:50;;;;;;;23.98;14.07;;;;;;;;;;5066433;28;20489;-69
2021/11/20 08:04:16;;;;;;;21.45;13.60;;;;;;;;;;5060414;28;20025;-69
2021/11/20 08:06:43;;;;;;;26.38;16.65;;;;;;;;;;5044271;28;20021;-70
2021/11/20 08:09:10;;;;;;;27.13;15.43;;;;;;;;;;5037803;28;20036;-70
2021/11/20 08:11:38;;;;;;;22.00;14.35;;;;;;;;;;5066583;28;20018;-70
2021/11/20 08:14:04;;;;;;;23.10;14.23;;;;;;;;;;5070895;28;20016;-70
2021/11/20 08:16:32;;;;;;;21.58;15.02;;;;;;;;;;5055153;28;20454;-70
2021/11/20 08:18:58;;;;;;;26.27;14.98;;;;;;;;;;5065668;28;20039;-69
2021/11/20 08:21:25;;;;;;;28.33;14.43;;;;;;;;;;5055194;28;20477;-69
2021/11/20 08:23:51;;;;;;;23.60;14.70;;;;;;;;;;5045794;28;20021;-69
2021/11/20 08:26:18;;;;;;;20.52;14.57;;;;;;;;;;5056683;28;20107;-69
2021/11/20 08:28:44;;;;;;;20.08;13.93;;;;;;;;;;5061093;28;20025;-69
2021/11/20 08:31:10;;;;;;;24.52;14.48;;;;;;;;;;5070773;28;20452;-69
2021/11/20 08:33:37;;;;;;;21.48;14.35;;;;;;;;;;5064748;28;20537;-69
2021/11/20 08:36:05;;;;;;;23.80;15.43;;;;;;;;;;5075246;28;20029;-70
2021/11/20 08:38:31;;;;;;;21.38;15.50;;;;;;;;;;5069031;28;20024;-70
2021/11/20 08:40:57;;;;;;;23.15;15.27;;;;;;;;;;5065946;28;20021;-71
2021/11/20 08:43:28;;;;;;;21.83;14.65;;;;;;;;;;5074827;28;20054;-70
2021/11/20 08:45:54;;;;;;;23.52;15.68;;;;;;;;;;5043427;28;20108;-69
2021/11/20 08:48:21;;;;;;;22.00;14.18;;;;;;;;;;5068054;28;20035;-70
2021/11/20 08:50:49;;;;;;;23.58;15.05;;;;;;;;;;5068652;28;20028;-70
2021/11/20 08:53:15;;;;;;;22.67;15.55;;;;;;;;;;5061075;28;20431;-70
2021/11/20 08:55:42;;;;;;;22.50;16.00;;;;;;;;;;5058949;28;20173;-70
2021/11/20 08:58:08;;;;;;;23.50;15.35;;;;;;;;;;5065563;28;20016;-70
2021/11/20 09:00:34;;;;;;;25.38;15.50;;;;;;;;;;5070184;28;20032;-71
2021/11/20 09:03:06;;;;;;;23.92;16.15;;;;;;;;;;5073429;28;20024;-70
2021/11/20 09:05:32;;;;;;;25.00;16.00;;;;;;;;;;5062548;28;20033;-70
2021/11/20 09:08:07;;;;;;;42.63;15.93;;;;;;;;;;5054645;28;20102;-70
2021/11/20 09:10:33;;;;;;;26.15;15.57;;;;;;;;;;5048166;28;20029;-70
2021/11/20 09:13:01;;;;;;;22.80;15.70;;;;;;;;;;5052707;28;20029;-70
2021/11/20 09:15:36;;;;;;;26.88;14.88;;;;;;;;;;5075464;28;20055;-70
2021/11/20 09:18:02;;;;;;;24.55;15.98;;;;;;;;;;5065088;28;20118;-70
2021/11/20 09:20:29;;;;;;;24.77;15.32;;;;;;;;;;5050002;28;20025;-69
2021/11/20 09:22:55;;;;;;;29.52;15.63;;;;;;;;;;5072535;28;20028;-71
2021/11/20 09:25:21;;;;;;;25.35;15.27;;;;;;;;;;5061955;28;20025;-70
2021/11/20 09:27:48;;;;;;;22.42;14.55;;;;;;;;;;5044950;28;20111;-70
2021/11/20 09:30:19;;;;;;;23.42;15.43;;;;;;;;;;5053172;28;20036;-69
2021/11/20 09:32:45;;;;;;;24.90;16.17;;;;;;;;;;5070259;28;20028;-69
2021/11/20 09:35:11;;;;;;;22.15;16.13;;;;;;;;;;5063086;28;20029;-68
2021/11/20 09:37:37;;;;;;;24.48;15.75;;;;;;;;;;5074629;28;20100;-67
2021/11/20 09:40:04;;;;;;;27.85;16.45;;;;;;;;;;5061834;28;20401;-69
2021/11/20 09:42:30;;;;;;;24.40;15.23;;;;;;;;;;5043828;28;20035;-68
2021/11/20 09:44:59;;;;;;;20.65;15.40;;;;;;;;;;5063041;28;20227;-68
2021/11/20 09:47:33;;;;;;;27.23;15.63;;;;;;;;;;5054277;28;20437;-68
2021/11/20 09:50:04;;;;;;;19.33;14.18;;;;;;;;;;5056621;28;20421;-68
2021/11/20 09:52:30;;;;;;;23.15;15.13;;;;;;;;;;5060782;28;20017;-68
2021/11/20 09:54:56;;;;;;;21.77;15.30;;;;;;;;;;5058295;28;20017;-69
2021/11/20 09:57:26;;;;;;;28.35;15.43;;;;;;;;;;5071806;28;20025;-70
2021/11/20 09:59:52;;;;;;;23.00;14.90;;;;;;;;;;5057319;28;20031;-70
2021/11/20 10:02:50;;;;;;;23.02;14.50;;;;;;;;;;5057583;28;20025;-66
2021/11/20 10:05:20;;;;;;;20.88;14.32;;;;;;;;;;4996467;28;20032;-68
2021/11/20 10:07:52;;;;;;;27.75;16.52;;;;;;;;;;5055875;28;20420;-68
2021/11/20 10:10:18;;;;;;;19.65;14.38;;;;;;;;;;5058934;28;20489;-69
2021/11/20 10:13:04;;;;;;;30.00;16.52;;;;;;;;;;5064025;28;20039;-68
2021/11/20 10:15:32;;;;;;;21.20;14.85;;;;;;;;;;5033842;28;20026;-69
2021/11/20 10:18:14;;;;;;;87.80;47.17;;;;;;;;;;5058290;28;20045;-70
2021/11/20 10:20:42;;;;;;;78.57;37.97;;;;;;;;;;5039720;28;20036;-69
2021/11/20 10:23:11;;;;;;;89.72;40.50;;;;;;;;;;5040595;28;20025;-68
2021/11/20 10:25:53;;;;;;;110.57;51.80;;;;;;;;;;5055238;28;20029;-70
2021/11/20 10:28:37;;;;;;;227.98;104.15;;;;;;;;;;5065978;28;20027;-68
2021/11/20 10:31:07;;;;;;;202.90;77.95;;;;;;;;;;5066274;28;20111;-70
2021/11/20 10:33:33;;;;;;;58.22;27.73;;;;;;;;;;5064273;28;20041;-70
2021/11/20 10:36:06;;;;;;;38.00;19.88;;;;;;;;;;5063230;28;20031;-72
2021/11/20 10:38:35;;;;;;;161.27;69.65;;;;;;;;;;5066163;28;20025;-70
2021/11/20 10:41:17;;;;;;;65.28;33.13;;;;;;;;;;5066286;28;20534;-70
2021/11/20 10:43:50;;;;;;;29.85;19.35;;;;;;;;;;5062873;28;20217;-70
2021/11/20 10:46:30;;;;;;;24.15;15.60;;;;;;;;;;5065850;28;20052;-74
2021/11/20 10:49:02;;;;;;;44.33;24.02;;;;;;;;;;5065798;28;20032;-71
2021/11/20 10:51:37;;;;;;;23.90;14.38;;;;;;;;;;5065780;28;20423;-71
2021/11/20 10:54:12;;;;;;;64.93;31.90;;;;;;;;;;5063821;28;20017;-70
2021/11/20 10:56:41;;;;;;;35.63;20.30;;;;;;;;;;5048283;28;20020;-71
2021/11/20 10:59:30;;;;;;;47.50;24.45;;;;;;;;;;5066377;28;20025;-70
2021/11/20 11:02:15;;;;;;;25.25;15.82;;;;;;;;;;5060124;28;20453;-70
2021/11/20 11:05:02;;;;;;;31.40;17.67;;;;;;;;;;5066421;28;20094;-72
2021/11/20 11:07:28;;;;;;;56.97;25.23;;;;;;;;;;5065506;28;20029;-71
2021/11/20 11:09:57;;;;;;;19.35;12.98;;;;;;;;;;5055082;28;20027;-71
2021/11/20 11:12:23;;;;;;;66.13;31.40;;;;;;;;;;5045552;28;20037;-71
2021/11/20 11:15:07;;;;;;;40.63;14.52;;;;;;;;;;5061522;28;20456;-69
2021/11/20 11:17:48;;;;;;;32.60;18.25;;;;;;;;;;5058583;28;20097;-67
2021/11/20 11:20:38;;;;;;;37.22;18.90;;;;;;;;;;5057329;28;20025;-70
2021/11/20 11:23:22;;;;;;;31.92;17.27;;;;;;;;;;5015232;28;20525;-71
2021/11/20 11:25:51;;;;;;;18.90;11.30;;;;;;;;;;5061881;28;20028;-70
2021/11/20 11:28:21;;;;;;;60.00;25.98;;;;;;;;;;5066093;28;20021;-69
2021/11/20 11:31:05;;;;;;;69.18;37.13;;;;;;;;;;5062030;28;20040;-69
2021/11/20 11:33:33;;;;;;;86.72;46.92;;;;;;;;;;5037957;28;20031;-69
2021/11/20 11:36:18;;;;;;;48.05;27.83;;;;;;;;;;5045640;28;20056;-71
2021/11/20 11:39:03;;;;;;;47.42;26.20;;;;;;;;;;5062745;28;20029;-71
2021/11/20 11:41:38;;;;;;;51.42;26.65;;;;;;;;;;5045419;28;20114;-69
2021/11/20 11:44:07;;;;;;;54.80;30.05;;;;;;;;;;5059368;28;20381;-66
2021/11/20 11:46:36;;;;;;;28.17;16.35;;;;;;;;;;5063858;28;20018;-65
2021/11/20 11:49:27;;;;;;;29.80;15.93;;;;;;;;;;5067302;28;20498;-66
2021/11/20 11:51:56;;;;;;;21.65;12.38;;;;;;;;;;5042417;28;20016;-66
2021/11/20 11:54:32;;;;;;;26.33;15.52;;;;;;;;;;5064934;28;20020;-66
2021/11/20 11:56:58;;;;;;;24.38;13.68;;;;;;;;;;5066883;28;20082;-66
2021/11/20 11:59:24;;;;;;;20.77;12.57;;;;;;;;;;5056947;28;20367;-65
2021/11/20 12:01:53;;;;;;;24.35;13.80;;;;;;;;;;5063877;28;20024;-66
2021/11/20 12:04:31;;;;;;;21.58;12.70;;;;;;;;;;5053183;28;20100;-66
2021/11/20 12:07:06;;;;;;;21.90;12.00;;;;;;;;;;5053568;28;20089;-65
2021/11/20 12:09:35;;;;;;;11.85;8.73;;;;;;;;;;5060701;28;20054;-65
2021/11/20 12:12:09;;;;;;;29.75;16.90;;;;;;;;;;5056025;28;20108;-65
2021/11/20 12:14:38;;;;;;;20.42;11.35;;;;;;;;;;5052634;28;20063;-65
2021/11/20 12:17:23;;;;;;;23.52;12.43;;;;;;;;;;5049028;28;20025;-66
2021/11/20 12:20:12;;;;;;;19.35;11.18;;;;;;;;;;5037176;28;20025;-65
2021/11/20 12:22:53;;;;;;;20.73;11.27;;;;;;;;;;5052063;28;20208;-65
2021/11/20 12:25:31;;;;;;;19.05;11.32;;;;;;;;;;5058730;28;20021;-64
2021/11/20 12:27:59;;;;;;;12.45;9.82;;;;;;;;;;5042385;28;20429;-65
2021/11/20 12:30:25;;;;;;;17.33;10.80;;;;;;;;;;5063762;28;20085;-65
2021/11/20 12:33:09;;;;;;;9.88;7.47;;;;;;;;;;5064768;28;20107;-65
2021/11/20 12:35:41;;;;;;;13.02;8.82;;;;;;;;;;5056449;28;20027;-65
2021/11/20 12:38:26;;;;;;;8.73;7.07;;;;;;;;;;5066270;28;20036;-65
2021/11/20 12:40:59;;;;;;;24.05;12.85;;;;;;;;;;5065273;28;20182;-70
2021/11/20 12:43:33;;;;;;;17.48;10.75;;;;;;;;;;5056355;28;20029;-72
2021/11/20 12:46:18;;;;;;;19.50;11.23;;;;;;;;;;5067862;28;20025;-70
2021/11/20 12:49:02;;;;;;;16.38;11.32;;;;;;;;;;5063762;28;20103;-71
2021/11/20 12:51:51;;;;;;;28.23;15.63;;;;;;;;;;5056386;28;20029;-70
2021/11/20 12:54:23;;;;;;;13.80;9.23;;;;;;;;;;5001938;28;20120;-70
2021/11/20 12:56:50;;;;;;;20.88;10.68;;;;;;;;;;5064839;28;20435;-70
2021/11/20 12:59:16;;;;;;;22.85;12.60;;;;;;;;;;5056463;28;20390;-70
2021/11/20 13:01:45;;;;;;;20.98;12.57;;;;;;;;;;5069050;28;20024;-69
2021/11/20 13:04:11;;;;;;;16.98;10.80;;;;;;;;;;5060034;28;20032;-69
2021/11/20 13:06:50;;;;;;;17.17;10.20;;;;;;;;;;5061807;28;20028;-69
2021/11/20 13:09:25;;;;;;;16.52;10.10;;;;;;;;;;5056305;28;20062;-70
2021/11/20 13:12:04;;;;;;;14.57;9.13;;;;;;;;;;5045265;28;20057;-71
2021/11/20 13:14:33;;;;;;;19.17;12.23;;;;;;;;;;5069552;28;20028;-73
2021/11/20 13:16:59;;;;;;;24.90;12.73;;;;;;;;;;5058812;28;20017;-72
2021/11/20 13:19:27;;;;;;;18.45;11.27;;;;;;;;;;5068773;28;20025;-70
2021/11/20 13:21:53;;;;;;;107.78;50.55;;;;;;;;;;5042296;28;20020;-70
2021/11/20 13:24:19;;;;;;;43.28;23.23;;;;;;;;;;5063698;28;20030;-70
2021/11/20 13:27:01;;;;;;;88.53;43.30;;;;;;;;;;5063205;28;20032;-69
2021/11/20 13:29:28;;;;;;;26.02;14.80;;;;;;;;;;5055591;28;20033;-69
2021/11/20 13:31:54;;;;;;;26.85;14.23;;;;;;;;;;5068376;28;20021;-70
2021/11/20 13:34:20;;;;;;;59.05;29.92;;;;;;;;;;5059854;28;20082;-69
2021/11/20 13:36:46;;;;;;;421.33;210.82;;;;;;;;;;5059885;28;20021;-70
2021/11/20 13:39:12;;;;;;;36.50;19.48;;;;;;;;;;5067251;28;20474;-71
2021/11/20 13:41:38;;;;;;;52.78;22.90;;;;;;;;;;5055434;28;20028;-71
2021/11/20 13:44:06;;;;;;;166.18;72.75;;;;;;;;;;5066110;28;20021;-70
2021/11/20 13:46:32;;;;;;;21.58;11.35;;;;;;;;;;5043453;28;20017;-68
2021/11/20 13:49:04;;;;;;;32.08;16.25;;;;;;;;;;5058228;28;20048;-69
2021/11/20 13:51:31;;;;;;;21.48;13.10;;;;;;;;;;5068319;28;20536;-70
2021/11/20 13:54:08;;;;;;;20.23;11.50;;;;;;;;;;5056158;28;20501;-70
2021/11/20 13:56:34;;;;;;;11.85;7.68;;;;;;;;;;5061713;28;20032;-69
2021/11/20 13:59:02;;;;;;;23.15;12.50;;;;;;;;;;5047095;28;20028;-70
2021/11/20 14:01:31;;;;;;;30.05;16.33;;;;;;;;;;5054846;28;20475;-70
2021/11/20 14:03:57;;;;;;;18.17;11.25;;;;;;;;;;5067422;28;20032;-71
2021/11/20 14:06:23;;;;;;;45.10;22.80;;;;;;;;;;5060694;28;20043;-70
2021/11/20 14:08:49;;;;;;;17.75;10.70;;;;;;;;;;5053811;28;20084;-69
2021/11/20 14:11:20;;;;;;;37.38;20.98;;;;;;;;;;5046470;28;20030;-69
2021/11/20 14:13:50;;;;;;;24.48;12.95;;;;;;;;;;5051631;28;20025;-69
2021/11/20 14:16:27;;;;;;;12.90;8.80;;;;;;;;;;5041260;28;20502;-67
2021/11/20 14:18:52;;;;;;;19.33;12.57;;;;;;;;;;5027376;28;20070;-71
2021/11/20 14:21:19;;;;;;;14.00;9.18;;;;;;;;;;5044584;28;20017;-70
2021/11/20 14:23:59;;;;;;;16.52;10.63;;;;;;;;;;5042672;28;20437;-68
2021/11/20 14:26:26;;;;;;;17.17;11.30;;;;;;;;;;5043290;28;20497;-69
2021/11/20 14:28:52;;;;;;;13.68;9.15;;;;;;;;;;5051421;28;20062;-68
2021/11/20 14:31:19;;;;;;;20.60;12.07;;;;;;;;;;5042376;28;20167;-70